createdAt,value
2019-05-02T00:00:26.570Z,7.87
2019-05-02T00:01:26.554Z,7.87
2019-05-02T00:02:28.888Z,7.87
2019-05-02T00:03:26.518Z,7.84
2019-05-02T00:04:26.496Z,7.85
2019-05-02T00:05:27.414Z,7.85
2019-05-02T00:06:26.468Z,7.77
2019-05-02T00:07:26.451Z,7.84
2019-05-02T00:08:29.222Z,7.87
2019-05-02T00:09:26.419Z,7.83
2019-05-02T00:10:26.402Z,7.83
2019-05-02T00:11:26.385Z,7.80
2019-05-02T00:12:26.390Z,7.80
2019-05-02T00:13:26.352Z,7.81
2019-05-02T00:14:26.335Z,7.75
2019-05-02T00:15:26.320Z,7.75
2019-05-02T00:16:26.299Z,7.80
2019-05-02T00:17:27.515Z,7.81
2019-05-02T00:18:26.268Z,7.84
2019-05-02T00:19:26.278Z,7.83
2019-05-02T00:20:27.177Z,7.77
2019-05-02T00:21:26.228Z,7.74
2019-05-02T00:22:26.217Z,7.81
2019-05-02T00:23:27.952Z,7.78
2019-05-02T00:24:26.161Z,7.78
2019-05-02T00:25:26.148Z,7.77
2019-05-02T00:26:26.130Z,7.77
2019-05-02T00:27:26.111Z,7.77
2019-05-02T00:28:26.100Z,7.67
2019-05-02T00:29:26.079Z,7.72
2019-05-02T00:30:29.979Z,7.74
2019-05-02T00:31:26.042Z,7.72
2019-05-02T00:32:26.056Z,7.74
2019-05-02T00:33:29.188Z,7.74
2019-05-02T00:34:26.005Z,7.78
2019-05-02T00:35:25.981Z,7.83
2019-05-02T00:36:25.962Z,7.75
2019-05-02T00:37:26.684Z,7.84
2019-05-02T00:38:25.927Z,7.77
2019-05-02T00:39:25.905Z,7.78
2019-05-02T00:40:27.715Z,7.77
2019-05-02T00:41:25.873Z,7.75
2019-05-02T00:42:25.862Z,7.78
2019-05-02T00:43:29.081Z,7.66
2019-05-02T00:44:25.842Z,7.78
2019-05-02T00:45:26.008Z,7.70
2019-05-02T00:46:30.159Z,7.77
2019-05-02T00:47:25.774Z,7.69
2019-05-02T00:48:25.759Z,7.69
2019-05-02T00:49:25.741Z,7.72
2019-05-02T00:50:25.724Z,7.77
2019-05-02T00:51:26.770Z,7.66
2019-05-02T00:52:25.689Z,7.61
2019-05-02T00:53:25.674Z,7.61
2019-05-02T00:54:25.655Z,7.62
2019-05-02T00:55:29.006Z,7.69
2019-05-02T00:56:25.636Z,7.59
2019-05-02T00:57:25.611Z,7.66
2019-05-02T00:58:27.211Z,7.58
2019-05-02T00:59:25.578Z,7.58
2019-05-02T01:00:25.584Z,7.61
2019-05-02T01:01:29.664Z,7.67
2019-05-02T01:02:25.521Z,7.64
2019-05-02T01:03:25.507Z,7.64
2019-05-02T01:04:27.702Z,7.55
2019-05-02T01:05:25.490Z,7.48
2019-05-02T01:06:25.466Z,7.48
2019-05-02T01:07:26.808Z,7.47
2019-05-02T01:08:25.481Z,7.58
2019-05-02T01:09:25.408Z,7.48
2019-05-02T01:10:25.391Z,7.48
2019-05-02T01:11:28.302Z,7.53
2019-05-02T01:12:26.830Z,7.43
2019-05-02T01:13:25.336Z,7.46
2019-05-02T01:14:27.095Z,7.46
2019-05-02T01:15:25.302Z,7.44
2019-05-02T01:16:25.285Z,7.41
2019-05-02T01:17:26.079Z,7.43
2019-05-02T01:18:25.253Z,7.44
2019-05-02T01:19:25.294Z,7.43
2019-05-02T01:20:27.402Z,7.41
2019-05-02T01:21:25.203Z,7.37
2019-05-02T01:22:25.191Z,7.41
2019-05-02T01:23:27.749Z,7.37
2019-05-02T01:24:25.151Z,7.41
2019-05-02T01:25:25.133Z,7.39
2019-05-02T01:26:29.228Z,7.39
2019-05-02T01:27:25.099Z,7.46
2019-05-02T01:28:25.087Z,7.43
2019-05-02T01:29:29.723Z,7.40
2019-05-02T01:30:25.049Z,7.40
2019-05-02T01:31:25.037Z,7.47
2019-05-02T01:32:29.612Z,7.46
2019-05-02T01:33:24.999Z,7.43
2019-05-02T01:34:25.004Z,7.46
2019-05-02T01:35:27.028Z,7.50
2019-05-02T01:36:24.949Z,7.39
2019-05-02T01:37:24.930Z,7.39
2019-05-02T01:38:26.455Z,7.41
2019-05-02T01:39:24.893Z,7.46
2019-05-02T01:40:24.874Z,7.36
2019-05-02T01:41:29.089Z,7.46
2019-05-02T01:42:24.847Z,7.43
2019-05-02T01:43:25.588Z,7.44
2019-05-02T01:44:24.832Z,7.44
2019-05-02T01:45:24.790Z,7.39
2019-05-02T01:46:24.777Z,7.37
2019-05-02T01:47:29.151Z,7.31
2019-05-02T01:48:24.745Z,7.31
2019-05-02T01:49:24.728Z,7.32
2019-05-02T01:50:28.872Z,7.33
2019-05-02T01:51:24.686Z,7.37
2019-05-02T01:52:25.041Z,7.33
2019-05-02T01:53:24.667Z,7.33
2019-05-02T01:54:24.642Z,7.31
2019-05-02T01:55:24.631Z,7.31
2019-05-02T01:56:28.465Z,7.28
2019-05-02T01:57:24.591Z,7.31
2019-05-02T01:58:24.574Z,7.31
2019-05-02T01:59:24.556Z,7.33
2019-05-02T02:00:24.539Z,7.26
2019-05-02T02:01:24.524Z,7.26
2019-05-02T02:02:28.137Z,7.23
2019-05-02T02:03:24.487Z,7.33
2019-05-02T02:04:24.467Z,7.23
2019-05-02T02:05:27.579Z,7.23
2019-05-02T02:06:24.436Z,7.25
2019-05-02T02:07:24.412Z,7.21
2019-05-02T02:08:27.365Z,7.21
2019-05-02T02:09:24.386Z,7.19
2019-05-02T02:10:24.373Z,7.19
2019-05-02T02:11:28.340Z,7.04
2019-05-02T02:12:24.338Z,7.07
2019-05-02T02:13:24.316Z,7.10
2019-05-02T02:14:24.298Z,7.10
2019-05-02T02:15:25.099Z,7.04
2019-05-02T02:16:24.264Z,7.10
2019-05-02T02:17:24.253Z,6.97
2019-05-02T02:18:27.666Z,7.00
2019-05-02T02:19:24.259Z,7.00
2019-05-02T02:20:24.198Z,6.95
2019-05-02T02:21:25.846Z,6.95
2019-05-02T02:22:24.159Z,6.95
2019-05-02T02:23:24.159Z,6.85
2019-05-02T02:24:25.097Z,6.90
2019-05-02T02:25:24.113Z,6.75
2019-05-02T02:26:24.092Z,6.80
2019-05-02T02:27:24.605Z,6.85
2019-05-02T02:28:24.075Z,6.78
2019-05-02T02:29:24.042Z,6.78
2019-05-02T02:30:26.378Z,6.80
2019-05-02T02:31:24.005Z,6.74
2019-05-02T02:32:26.780Z,6.85
2019-05-02T02:33:23.976Z,6.77
2019-05-02T02:34:29.374Z,6.68
2019-05-02T02:35:23.957Z,6.70
2019-05-02T02:36:31.355Z,6.62
2019-05-02T02:37:23.902Z,6.70
2019-05-02T02:38:26.848Z,6.65
2019-05-02T02:39:23.875Z,6.60
2019-05-02T02:40:32.811Z,6.59
2019-05-02T02:41:23.831Z,6.54
2019-05-02T02:42:25.094Z,6.60
2019-05-02T02:43:34.273Z,6.62
2019-05-02T02:44:23.784Z,6.59
2019-05-02T02:45:23.782Z,6.56
2019-05-02T02:46:23.747Z,6.56
2019-05-02T02:47:23.729Z,6.38
2019-05-02T02:48:23.715Z,6.50
2019-05-02T02:49:24.522Z,6.39
2019-05-02T02:50:23.675Z,6.43
2019-05-02T02:51:26.232Z,6.39
2019-05-02T02:52:23.640Z,6.43
2019-05-02T02:53:24.204Z,6.35
2019-05-02T02:54:23.609Z,6.28
2019-05-02T02:55:24.563Z,6.35
2019-05-02T02:56:23.577Z,6.31
2019-05-02T02:57:28.024Z,6.25
2019-05-02T02:58:23.546Z,6.28
2019-05-02T02:59:26.267Z,6.26
2019-05-02T03:00:23.500Z,6.22
2019-05-02T03:01:28.822Z,6.16
2019-05-02T03:02:23.469Z,6.16
2019-05-02T03:03:27.755Z,6.19
2019-05-02T03:04:23.433Z,6.17
2019-05-02T03:05:25.919Z,6.13
2019-05-02T03:06:23.397Z,6.13
2019-05-02T03:07:25.955Z,6.13
2019-05-02T03:08:23.363Z,6.17
2019-05-02T03:09:26.510Z,6.07
2019-05-02T03:10:23.325Z,6.06
2019-05-02T03:11:25.355Z,6.10
2019-05-02T03:12:23.292Z,6.12
2019-05-02T03:13:24.277Z,6.02
2019-05-02T03:14:23.262Z,6.07
2019-05-02T03:15:27.828Z,6.02
2019-05-02T03:16:23.219Z,6.06
2019-05-02T03:17:26.581Z,6.06
2019-05-02T03:18:26.906Z,6.01
2019-05-02T03:19:23.448Z,6.06
2019-05-02T03:20:23.157Z,6.07
2019-05-02T03:21:23.131Z,6.01
2019-05-02T03:22:23.115Z,6.10
2019-05-02T03:23:24.248Z,6.15
2019-05-02T03:24:23.080Z,6.15
2019-05-02T03:25:27.008Z,6.12
2019-05-02T03:26:23.046Z,6.10
2019-05-02T03:27:23.026Z,6.19
2019-05-02T03:28:23.011Z,6.19
2019-05-02T03:29:22.993Z,6.19
2019-05-02T03:30:31.635Z,6.25
2019-05-02T03:31:29.075Z,6.26
2019-05-02T03:32:33.505Z,6.25
2019-05-02T03:33:22.921Z,6.28
2019-05-02T03:34:22.903Z,6.35
2019-05-02T03:35:40.550Z,6.29
2019-05-02T03:36:30.417Z,6.35
2019-05-02T03:37:22.850Z,6.39
2019-05-02T03:38:31.425Z,6.39
2019-05-02T03:39:22.848Z,6.44
2019-05-02T03:40:22.791Z,6.46
2019-05-02T03:41:23.655Z,6.56
2019-05-02T03:42:22.763Z,6.47
2019-05-02T03:43:25.797Z,6.54
2019-05-02T03:44:25.955Z,6.60
2019-05-02T03:45:22.723Z,6.62
2019-05-02T03:46:22.940Z,6.62
2019-05-02T03:47:22.687Z,6.72
2019-05-02T03:48:25.591Z,6.64
2019-05-02T03:49:22.638Z,6.65
2019-05-02T03:50:31.119Z,6.74
2019-05-02T03:51:25.133Z,6.72
2019-05-02T03:52:22.594Z,6.77
2019-05-02T03:53:25.058Z,6.77
2019-05-02T03:54:22.556Z,6.75
2019-05-02T03:55:23.831Z,6.71
2019-05-02T03:56:22.520Z,6.75
2019-05-02T03:57:31.708Z,6.78
2019-05-02T03:58:22.485Z,6.77
2019-05-02T03:59:22.475Z,6.87
2019-05-02T04:00:24.303Z,6.90
2019-05-02T04:01:22.426Z,6.87
2019-05-02T04:02:22.422Z,6.92
2019-05-02T04:03:22.396Z,6.90
2019-05-02T04:04:22.792Z,6.95
2019-05-02T04:05:22.362Z,6.89
2019-05-02T04:06:23.813Z,6.97
2019-05-02T04:07:22.325Z,6.95
2019-05-02T04:08:22.721Z,6.90
2019-05-02T04:09:22.299Z,6.93
2019-05-02T04:10:22.283Z,7.04
2019-05-02T04:11:22.261Z,7.00
2019-05-02T04:12:22.255Z,7.03
2019-05-02T04:13:22.223Z,7.01
2019-05-02T04:14:36.789Z,6.97
2019-05-02T04:15:22.192Z,7.05
2019-05-02T04:16:22.172Z,7.03
2019-05-02T04:17:22.156Z,7.05
2019-05-02T04:18:22.134Z,7.07
2019-05-02T04:19:22.125Z,7.07
2019-05-02T04:20:22.103Z,7.03
2019-05-02T04:21:24.267Z,7.07
2019-05-02T04:22:22.068Z,7.03
2019-05-02T04:23:27.812Z,7.07
2019-05-02T04:24:22.039Z,7.00
2019-05-02T04:25:27.878Z,7.07
2019-05-02T04:26:21.997Z,7.07
2019-05-02T04:27:27.854Z,7.14
2019-05-02T04:28:21.973Z,7.05
2019-05-02T04:29:24.399Z,7.07
2019-05-02T04:30:21.931Z,7.05
2019-05-02T04:31:25.056Z,7.10
2019-05-02T04:32:21.904Z,7.05
2019-05-02T04:33:21.879Z,7.07
2019-05-02T04:34:21.863Z,7.07
2019-05-02T04:35:21.849Z,7.07
2019-05-02T04:36:21.830Z,7.04
2019-05-02T04:37:21.810Z,7.13
2019-05-02T04:38:35.771Z,7.03
2019-05-02T04:39:22.013Z,7.07
2019-05-02T04:40:21.761Z,7.15
2019-05-02T04:41:28.500Z,7.05
2019-05-02T04:42:23.224Z,7.05
2019-05-02T04:43:21.716Z,7.07
2019-05-02T04:44:21.695Z,7.19
2019-05-02T04:45:29.072Z,7.13
2019-05-02T04:46:27.116Z,7.15
2019-05-02T04:47:22.197Z,7.22
2019-05-02T04:48:21.622Z,7.18
2019-05-02T04:49:29.664Z,7.22
2019-05-02T04:50:25.319Z,7.26
2019-05-02T04:51:21.568Z,7.21
2019-05-02T04:52:21.602Z,7.22
2019-05-02T04:53:25.991Z,7.23
2019-05-02T04:54:27.727Z,7.22
2019-05-02T04:55:28.161Z,7.26
2019-05-02T04:56:21.484Z,7.28
2019-05-02T04:57:27.276Z,7.28
2019-05-02T04:58:31.439Z,7.28
2019-05-02T04:59:23.013Z,7.31
2019-05-02T05:00:21.425Z,7.32
2019-05-02T05:01:21.678Z,7.28
2019-05-02T05:02:31.085Z,7.32
2019-05-02T05:03:21.471Z,7.28
2019-05-02T05:04:21.345Z,7.37
2019-05-02T05:05:25.730Z,7.32
2019-05-02T05:06:21.314Z,7.39
2019-05-02T05:07:21.300Z,7.39
2019-05-02T05:08:26.329Z,7.39
2019-05-02T05:09:21.260Z,7.46
2019-05-02T05:10:21.238Z,7.51
2019-05-02T05:11:24.826Z,7.50
2019-05-02T05:12:21.218Z,7.48
2019-05-02T05:13:23.308Z,7.59
2019-05-02T05:14:21.178Z,7.58
2019-05-02T05:15:36.163Z,7.67
2019-05-02T05:16:21.140Z,7.66
2019-05-02T05:17:25.173Z,7.58
2019-05-02T05:18:21.110Z,7.74
2019-05-02T05:19:23.005Z,7.81
2019-05-02T05:20:21.101Z,7.81
2019-05-02T05:21:24.691Z,7.81
2019-05-02T05:22:21.037Z,7.83
2019-05-02T05:23:21.635Z,7.96
2019-05-02T05:24:21.002Z,7.98
2019-05-02T05:25:21.376Z,8.08
2019-05-02T05:26:20.966Z,8.06
2019-05-02T05:27:22.840Z,8.08
2019-05-02T05:28:20.947Z,8.13
2019-05-02T05:29:23.248Z,8.18
2019-05-02T05:30:20.904Z,8.18
2019-05-02T05:31:24.134Z,8.31
2019-05-02T05:32:20.870Z,8.32
2019-05-02T05:33:20.864Z,8.39
2019-05-02T05:34:22.733Z,8.49
2019-05-02T05:35:20.823Z,8.54
2019-05-02T05:36:28.873Z,8.52
2019-05-02T05:37:20.787Z,8.77
2019-05-02T05:38:23.029Z,8.84
2019-05-02T05:39:20.750Z,8.89
2019-05-02T05:40:22.514Z,8.93
2019-05-02T05:41:23.096Z,8.99
2019-05-02T05:42:23.276Z,9.03
2019-05-02T05:43:20.761Z,9.15
2019-05-02T05:44:23.194Z,9.24
2019-05-02T05:45:20.657Z,9.27
2019-05-02T05:46:20.644Z,9.34
2019-05-02T05:47:21.441Z,9.47
2019-05-02T05:48:20.611Z,9.49
2019-05-02T05:49:21.878Z,9.58
2019-05-02T05:50:20.581Z,9.63
2019-05-02T05:51:20.817Z,9.73
2019-05-02T05:52:20.558Z,9.73
2019-05-02T05:53:21.433Z,9.74
2019-05-02T05:54:20.514Z,9.91
2019-05-02T05:55:24.022Z,10.03
2019-05-02T05:56:20.487Z,10.07
2019-05-02T05:57:21.248Z,10.12
2019-05-02T05:58:20.455Z,10.13
2019-05-02T05:59:22.290Z,10.31
2019-05-02T06:00:23.270Z,10.42
2019-05-02T06:01:20.639Z,10.46
2019-05-02T06:02:20.398Z,10.45
2019-05-02T06:03:20.372Z,10.55
2019-05-02T06:04:23.627Z,10.62
2019-05-02T06:05:20.347Z,10.72
2019-05-02T06:06:23.208Z,10.82
2019-05-02T06:07:20.337Z,10.72
2019-05-02T06:08:20.299Z,10.86
2019-05-02T06:09:20.289Z,10.94
2019-05-02T06:10:20.262Z,11.07
2019-05-02T06:11:21.798Z,11.07
2019-05-02T06:12:20.242Z,11.22
2019-05-02T06:13:20.221Z,11.34
2019-05-02T06:14:24.884Z,11.34
2019-05-02T06:15:20.189Z,11.44
2019-05-02T06:16:20.174Z,11.51
2019-05-02T06:17:23.148Z,11.48
2019-05-02T06:18:20.148Z,11.62
2019-05-02T06:19:20.129Z,11.63
2019-05-02T06:20:20.116Z,11.73
2019-05-02T06:21:20.104Z,11.93
2019-05-02T06:22:24.457Z,12.03
2019-05-02T06:23:20.069Z,12.08
2019-05-02T06:24:20.061Z,12.07
2019-05-02T06:25:32.934Z,12.18
2019-05-02T06:26:20.033Z,12.23
2019-05-02T06:27:20.880Z,12.12
2019-05-02T06:28:20.016Z,12.20
2019-05-02T06:29:20.889Z,12.23
2019-05-02T06:30:19.969Z,12.32
2019-05-02T06:31:19.949Z,12.35
2019-05-02T06:32:20.708Z,12.37
2019-05-02T06:33:19.928Z,12.44
2019-05-02T06:34:19.914Z,12.53
2019-05-02T06:35:21.234Z,12.44
2019-05-02T06:36:19.882Z,12.53
2019-05-02T06:37:19.868Z,12.53
2019-05-02T06:38:21.701Z,12.44
2019-05-02T06:39:19.832Z,12.51
2019-05-02T06:40:19.826Z,12.63
2019-05-02T06:41:21.065Z,12.66
2019-05-02T06:42:19.799Z,12.62
2019-05-02T06:43:19.785Z,12.65
2019-05-02T06:44:24.106Z,12.70
2019-05-02T06:45:19.757Z,12.83
2019-05-02T06:46:21.867Z,12.87
2019-05-02T06:47:19.745Z,12.87
2019-05-02T06:48:19.725Z,12.91
2019-05-02T06:49:24.257Z,13.01
2019-05-02T06:50:19.686Z,13.03
2019-05-02T06:51:21.046Z,13.09
2019-05-02T06:52:19.659Z,13.13
2019-05-02T06:53:19.644Z,13.12
2019-05-02T06:54:22.825Z,13.16
2019-05-02T06:55:19.614Z,13.27
2019-05-02T06:56:19.603Z,13.36
2019-05-02T06:57:24.126Z,13.37
2019-05-02T06:58:19.585Z,13.50
2019-05-02T06:59:20.303Z,13.58
2019-05-02T07:00:19.546Z,13.57
2019-05-02T07:01:21.114Z,13.78
2019-05-02T07:02:19.520Z,13.75
2019-05-02T07:03:19.497Z,13.85
2019-05-02T07:04:23.088Z,13.86
2019-05-02T07:05:19.476Z,13.94
2019-05-02T07:06:19.662Z,13.94
2019-05-02T07:07:19.600Z,14.03
2019-05-02T07:08:19.521Z,14.03
2019-05-02T07:09:19.456Z,14.15
2019-05-02T07:10:20.292Z,14.20
2019-05-02T07:11:19.392Z,14.26
2019-05-02T07:12:19.388Z,14.31
2019-05-02T07:13:19.365Z,14.31
2019-05-02T07:14:23.677Z,14.40
2019-05-02T07:15:19.419Z,14.48
2019-05-02T07:16:37.233Z,14.49
2019-05-02T07:17:19.321Z,14.62
2019-05-02T07:18:19.306Z,14.73
2019-05-02T07:19:21.782Z,14.89
2019-05-02T07:20:19.282Z,14.94
2019-05-02T07:21:23.231Z,15.02
2019-05-02T07:22:19.252Z,15.08
2019-05-02T07:23:19.238Z,15.25
2019-05-02T07:24:19.233Z,15.19
2019-05-02T07:25:19.221Z,15.35
2019-05-02T07:26:21.270Z,15.36
2019-05-02T07:27:19.193Z,15.32
2019-05-02T07:28:19.189Z,15.36
2019-05-02T07:29:21.922Z,15.43
2019-05-02T07:30:19.152Z,15.44
2019-05-02T07:31:19.146Z,15.47
2019-05-02T07:32:24.162Z,15.47
2019-05-02T07:33:19.122Z,15.43
2019-05-02T07:34:19.123Z,15.50
2019-05-02T07:35:24.204Z,15.60
2019-05-02T07:36:19.085Z,15.65
2019-05-02T07:37:19.074Z,15.59
2019-05-02T07:38:20.122Z,15.76
2019-05-02T07:39:19.068Z,15.72
2019-05-02T07:40:19.034Z,15.83
2019-05-02T07:41:19.025Z,15.98
2019-05-02T07:42:19.024Z,16.02
2019-05-02T07:43:21.434Z,16.12
2019-05-02T07:44:19.005Z,16.18
2019-05-02T07:45:18.992Z,16.29
2019-05-02T07:46:21.100Z,16.40
2019-05-02T07:47:18.958Z,16.51
2019-05-02T07:48:19.096Z,16.49
2019-05-02T07:49:20.753Z,16.57
2019-05-02T07:50:18.931Z,16.64
2019-05-02T07:51:21.236Z,16.66
2019-05-02T07:52:18.909Z,16.82
2019-05-02T07:53:18.905Z,16.84
2019-05-02T07:54:19.402Z,16.98
2019-05-02T07:55:18.882Z,17.04
2019-05-02T07:56:19.040Z,17.05
2019-05-02T07:57:18.855Z,17.16
2019-05-02T07:58:18.866Z,17.14
2019-05-02T07:59:23.413Z,17.20
2019-05-02T08:00:18.824Z,17.17
2019-05-02T08:01:18.821Z,17.28
2019-05-02T08:02:20.248Z,17.34
2019-05-02T08:03:18.796Z,17.41
2019-05-02T08:04:18.788Z,17.47
2019-05-02T08:05:21.524Z,17.56
2019-05-02T08:06:18.764Z,17.63
2019-05-02T08:07:21.086Z,17.68
2019-05-02T08:08:18.763Z,17.82
2019-05-02T08:09:18.747Z,17.84
2019-05-02T08:10:22.295Z,17.87
2019-05-02T08:11:18.718Z,17.84
2019-05-02T08:12:18.714Z,17.88
2019-05-02T08:13:19.450Z,17.90
2019-05-02T08:14:18.698Z,17.90
2019-05-02T08:15:18.681Z,17.93
2019-05-02T08:16:22.427Z,17.91
2019-05-02T08:17:19.350Z,18.03
2019-05-02T08:18:18.650Z,18.13
2019-05-02T08:19:18.642Z,18.24
2019-05-02T08:20:19.564Z,18.31
2019-05-02T08:21:18.644Z,18.34
2019-05-02T08:22:18.620Z,18.48
2019-05-02T08:23:20.531Z,18.45
2019-05-02T08:24:18.596Z,18.64
2019-05-02T08:25:18.614Z,18.74
2019-05-02T08:26:21.611Z,18.76
2019-05-02T08:27:18.582Z,18.81
2019-05-02T08:28:18.609Z,18.76
2019-05-02T08:29:18.557Z,18.73
2019-05-02T08:30:18.552Z,18.74
2019-05-02T08:31:20.789Z,18.78
2019-05-02T08:32:18.528Z,18.73
2019-05-02T08:33:18.527Z,18.91
2019-05-02T08:34:18.528Z,18.98
2019-05-02T08:35:18.537Z,19.04
2019-05-02T08:36:18.501Z,19.12
2019-05-02T08:37:18.488Z,19.16
2019-05-02T08:38:19.027Z,19.35
2019-05-02T08:39:18.472Z,19.57
2019-05-02T08:40:18.464Z,19.59
2019-05-02T08:41:20.082Z,19.75
2019-05-02T08:42:18.446Z,19.84
2019-05-02T08:43:18.437Z,19.97
2019-05-02T08:44:18.430Z,20.12
2019-05-02T08:45:18.426Z,20.18
2019-05-02T08:46:18.417Z,20.19
2019-05-02T08:47:19.404Z,20.32
2019-05-02T08:48:18.405Z,20.44
2019-05-02T08:49:18.916Z,20.40
2019-05-02T08:50:18.384Z,20.37
2019-05-02T08:51:18.399Z,20.36
2019-05-02T08:52:18.369Z,20.32
2019-05-02T08:53:19.991Z,20.21
2019-05-02T08:54:18.363Z,20.22
2019-05-02T08:55:18.341Z,20.18
2019-05-02T08:56:21.491Z,20.39
2019-05-02T08:57:18.324Z,20.44
2019-05-02T08:58:18.380Z,20.63
2019-05-02T08:59:19.778Z,20.56
2019-05-02T09:00:18.306Z,20.59
2019-05-02T09:01:18.306Z,20.58
2019-05-02T09:02:21.094Z,20.66
2019-05-02T09:03:18.282Z,20.74
2019-05-02T09:04:18.276Z,20.80
2019-05-02T09:05:18.274Z,20.83
2019-05-02T09:06:22.398Z,20.92
2019-05-02T09:07:18.291Z,21.08
2019-05-02T09:08:18.250Z,21.28
2019-05-02T09:09:22.705Z,21.38
2019-05-02T09:10:18.222Z,21.69
2019-05-02T09:11:18.229Z,21.77
2019-05-02T09:12:20.005Z,22.00
2019-05-02T09:13:26.114Z,22.06
2019-05-02T09:14:18.218Z,22.23
2019-05-02T09:15:18.198Z,22.30
2019-05-02T09:16:23.670Z,22.30
2019-05-02T09:17:18.185Z,22.33
2019-05-02T09:18:18.172Z,22.34
2019-05-02T09:19:21.231Z,22.28
2019-05-02T09:20:21.029Z,22.43
2019-05-02T09:21:18.158Z,22.43
2019-05-02T09:22:18.149Z,22.41
2019-05-02T09:23:18.142Z,22.44
2019-05-02T09:24:21.293Z,22.68
2019-05-02T09:25:18.131Z,22.83
2019-05-02T09:26:18.131Z,22.96
2019-05-02T09:27:18.138Z,22.98
2019-05-02T09:28:22.479Z,23.02
2019-05-02T09:29:18.109Z,23.08
2019-05-02T09:30:22.889Z,23.21
2019-05-02T09:31:18.104Z,23.13
2019-05-02T09:32:24.869Z,23.20
2019-05-02T09:33:18.078Z,23.33
2019-05-02T09:34:22.776Z,23.34
2019-05-02T09:35:18.071Z,23.37
2019-05-02T09:36:18.071Z,23.45
2019-05-02T09:37:18.072Z,23.56
2019-05-02T09:38:18.058Z,23.76
2019-05-02T09:39:18.060Z,23.81
2019-05-02T09:40:18.060Z,23.89
2019-05-02T09:41:19.492Z,23.96
2019-05-02T09:42:19.139Z,23.82
2019-05-02T09:43:18.056Z,23.81
2019-05-02T09:44:18.780Z,23.82
2019-05-02T09:45:18.019Z,23.79
2019-05-02T09:46:18.067Z,23.71
2019-05-02T09:47:18.101Z,23.79
2019-05-02T09:48:22.870Z,23.70
2019-05-02T09:49:18.003Z,23.74
2019-05-02T09:50:20.720Z,23.82
2019-05-02T09:51:17.984Z,23.89
2019-05-02T09:52:17.985Z,23.91
2019-05-02T09:53:20.949Z,24.10
2019-05-02T09:54:17.992Z,24.10
2019-05-02T09:55:17.965Z,24.13
2019-05-02T09:56:17.989Z,24.04
2019-05-02T09:57:17.961Z,23.95
2019-05-02T09:58:21.318Z,23.94
2019-05-02T09:59:27.662Z,24.01
2019-05-02T10:00:17.936Z,24.10
2019-05-02T10:01:17.934Z,24.10
2019-05-02T10:02:17.931Z,24.10
2019-05-02T10:03:17.938Z,24.32
2019-05-02T10:04:17.939Z,24.36
2019-05-02T10:05:17.923Z,24.40
2019-05-02T10:06:18.316Z,24.58
2019-05-02T10:07:17.914Z,24.69
2019-05-02T10:08:17.906Z,24.77
2019-05-02T10:09:18.777Z,24.84
2019-05-02T10:10:17.907Z,24.99
2019-05-02T10:11:22.489Z,25.00
2019-05-02T10:12:17.879Z,25.06
2019-05-02T10:13:17.897Z,25.12
2019-05-02T10:14:17.874Z,25.12
2019-05-02T10:15:17.997Z,25.00
2019-05-02T10:16:22.372Z,24.99
2019-05-02T10:17:18.475Z,24.86
2019-05-02T10:18:19.608Z,24.65
2019-05-02T10:19:17.860Z,24.40
2019-05-02T10:20:17.839Z,24.36
2019-05-02T10:21:17.850Z,24.29
2019-05-02T10:22:17.836Z,24.36
2019-05-02T10:23:19.652Z,24.48
2019-05-02T10:24:17.839Z,24.68
2019-05-02T10:25:17.821Z,24.78
2019-05-02T10:26:20.158Z,24.84
2019-05-02T10:27:17.818Z,24.94
2019-05-02T10:28:17.810Z,24.97
2019-05-02T10:29:20.961Z,25.04
2019-05-02T10:30:17.827Z,25.15
2019-05-02T10:31:17.797Z,25.21
2019-05-02T10:32:17.819Z,25.25
2019-05-02T10:33:17.789Z,25.11
2019-05-02T10:34:17.911Z,25.09
2019-05-02T10:35:17.777Z,25.12
2019-05-02T10:36:19.618Z,25.25
2019-05-02T10:37:17.768Z,25.25
2019-05-02T10:38:19.411Z,25.18
2019-05-02T10:39:17.790Z,25.26
2019-05-02T10:40:17.791Z,25.25
2019-05-02T10:41:17.745Z,25.49
2019-05-02T10:42:17.749Z,25.58
2019-05-02T10:43:17.767Z,25.73
2019-05-02T10:44:17.737Z,25.76
2019-05-02T10:45:17.738Z,25.73
2019-05-02T10:46:17.734Z,25.80
2019-05-02T10:47:17.722Z,25.93
2019-05-02T10:48:25.830Z,26.01
2019-05-02T10:49:17.771Z,26.08
2019-05-02T10:50:17.719Z,26.11
2019-05-02T10:51:17.720Z,25.93
2019-05-02T10:52:21.650Z,25.81
2019-05-02T10:53:17.714Z,25.81
2019-05-02T10:54:20.528Z,25.86
2019-05-02T10:55:17.701Z,25.88
2019-05-02T10:56:17.691Z,25.80
2019-05-02T10:57:17.703Z,25.81
2019-05-02T10:58:17.819Z,25.86
2019-05-02T10:59:17.681Z,25.95
2019-05-02T11:00:17.678Z,26.01
2019-05-02T11:01:17.702Z,25.98
2019-05-02T11:02:17.687Z,25.77
2019-05-02T11:03:17.666Z,25.62
2019-05-02T11:04:17.662Z,25.48
2019-05-02T11:05:24.659Z,25.19
2019-05-02T11:06:17.653Z,25.19
2019-05-02T11:07:22.769Z,25.15
2019-05-02T11:08:17.651Z,25.18
2019-05-02T11:09:22.450Z,25.36
2019-05-02T11:10:17.638Z,25.40
2019-05-02T11:11:17.644Z,25.59
2019-05-02T11:12:24.279Z,25.70
2019-05-02T11:13:17.621Z,25.83
2019-05-02T11:14:17.619Z,25.96
2019-05-02T11:15:17.612Z,26.13
2019-05-02T11:16:17.609Z,26.22
2019-05-02T11:17:18.129Z,26.34
2019-05-02T11:18:17.603Z,26.53
2019-05-02T11:19:17.641Z,26.55
2019-05-02T11:20:17.598Z,26.36
2019-05-02T11:21:18.915Z,26.15
2019-05-02T11:22:17.671Z,25.98
2019-05-02T11:23:17.594Z,26.10
2019-05-02T11:24:17.597Z,26.07
2019-05-02T11:25:17.598Z,25.86
2019-05-02T11:26:21.585Z,25.68
2019-05-02T11:27:17.584Z,25.62
2019-05-02T11:28:18.028Z,25.56
2019-05-02T11:29:17.621Z,25.52
2019-05-02T11:30:22.382Z,25.48
2019-05-02T11:31:17.601Z,25.49
2019-05-02T11:32:17.554Z,25.52
2019-05-02T11:33:17.554Z,25.62
2019-05-02T11:34:17.573Z,25.70
2019-05-02T11:35:17.563Z,25.98
2019-05-02T11:36:17.716Z,26.11
2019-05-02T11:37:17.560Z,26.46
2019-05-02T11:38:46.329Z,26.63
2019-05-02T11:39:24.499Z,26.82
2019-05-02T11:40:17.535Z,26.97
2019-05-02T11:41:17.544Z,27.07
2019-05-02T11:42:21.930Z,27.13
2019-05-02T11:43:17.532Z,27.15
2019-05-02T11:44:17.522Z,27.25
2019-05-02T11:45:17.527Z,27.23
2019-05-02T11:46:17.546Z,27.20
2019-05-02T11:47:24.901Z,27.15
2019-05-02T11:48:19.813Z,27.23
2019-05-02T11:49:17.546Z,27.16
2019-05-02T11:50:17.539Z,27.35
2019-05-02T11:51:17.501Z,27.47
2019-05-02T11:52:17.531Z,27.43
2019-05-02T11:53:28.878Z,27.50
2019-05-02T11:54:17.492Z,27.44
2019-05-02T11:55:18.918Z,27.25
2019-05-02T11:56:17.541Z,27.22
2019-05-02T11:57:22.784Z,27.20
2019-05-02T11:58:17.496Z,27.00
2019-05-02T11:59:20.767Z,26.91
2019-05-02T12:00:17.512Z,26.76
2019-05-02T12:01:20.192Z,26.60
2019-05-02T12:02:18.971Z,26.49
2019-05-02T12:03:17.485Z,26.61
2019-05-02T12:04:17.499Z,26.56
2019-05-02T12:05:17.488Z,26.49
2019-05-02T12:06:19.714Z,26.49
2019-05-02T12:07:17.494Z,26.52
2019-05-02T12:08:17.484Z,26.59
2019-05-02T12:09:17.487Z,26.63
2019-05-02T12:10:17.493Z,26.68
2019-05-02T12:11:17.891Z,26.81
2019-05-02T12:12:17.490Z,26.91
2019-05-02T12:13:17.462Z,26.98
2019-05-02T12:14:17.458Z,27.13
2019-05-02T12:15:17.461Z,27.23
2019-05-02T12:16:17.478Z,27.20
2019-05-02T12:17:17.482Z,27.47
2019-05-02T12:18:20.314Z,27.50
2019-05-02T12:19:17.478Z,27.73
2019-05-02T12:20:17.483Z,27.83
2019-05-02T12:21:17.454Z,27.93
2019-05-02T12:22:17.481Z,27.95
2019-05-02T12:23:17.454Z,27.79
2019-05-02T12:24:17.468Z,27.72
2019-05-02T12:25:17.462Z,27.40
2019-05-02T12:26:17.450Z,27.19
2019-05-02T12:27:17.448Z,27.16
2019-05-02T12:28:17.447Z,27.01
2019-05-02T12:29:17.507Z,26.93
2019-05-02T12:30:17.478Z,26.96
2019-05-02T12:31:17.470Z,27.00
2019-05-02T12:32:17.447Z,26.96
2019-05-02T12:33:17.457Z,27.03
2019-05-02T12:34:17.441Z,27.01
2019-05-02T12:35:17.456Z,26.96
2019-05-02T12:36:17.441Z,26.98
2019-05-02T12:37:17.441Z,26.91
2019-05-02T12:38:17.477Z,26.85
2019-05-02T12:39:17.437Z,26.93
2019-05-02T12:40:17.432Z,27.11
2019-05-02T12:41:22.384Z,27.18
2019-05-02T12:42:17.833Z,27.19
2019-05-02T12:43:17.434Z,27.19
2019-05-02T12:44:17.457Z,27.22
2019-05-02T12:45:17.445Z,27.29
2019-05-02T12:46:17.457Z,27.20
2019-05-02T12:47:17.431Z,27.26
2019-05-02T12:48:17.457Z,27.28
2019-05-02T12:49:25.291Z,27.25
2019-05-02T12:50:17.472Z,27.33
2019-05-02T12:51:17.432Z,27.34
2019-05-02T12:52:17.453Z,27.35
2019-05-02T12:53:17.439Z,27.37
2019-05-02T12:54:17.440Z,27.35
2019-05-02T12:55:17.427Z,27.41
2019-05-02T12:56:17.431Z,27.16
2019-05-02T12:57:17.438Z,27.01
2019-05-02T12:58:17.455Z,26.82
2019-05-02T12:59:17.436Z,26.64
2019-05-02T13:00:18.548Z,26.49
2019-05-02T13:01:17.446Z,26.41
2019-05-02T13:02:17.483Z,26.31
2019-05-02T13:03:17.424Z,26.29
2019-05-02T13:04:17.453Z,26.31